Time;durP1;ratioP1;P1;durP2;ratioP2;P2;SDS_P1;SDS_P2;PMS_P1;PMS_P2;Temp;Humidity;BMP_temperature;BMP_pressure;BME280_temperature;BME280_humidity;BME280_pressure;Samples;Min_cycle;Max_cycle;Signal;HPM_P1;HPM_P2
2022/10/10 00:00:43;;;;;;;37.30;7.07;;;;;;;8.92;81.11;96441.72;5088259;28;20075;-76
2022/10/10 00:03:10;;;;;;;23.17;3.45;;;;;;;8.86;81.03;96434.81;5087674;28;20070;-77
2022/10/10 00:05:39;;;;;;;31.88;3.38;;;;;;;8.83;80.96;96436.22;5087741;28;20048;-77
2022/10/10 00:08:06;;;;;;;37.22;4.15;;;;;;;8.83;81.44;96438.94;5088021;28;20048;-76
2022/10/10 00:10:33;;;;;;;47.90;4.65;;;;;;;8.80;81.59;96444.16;5107047;27;20058;-77
2022/10/10 00:13:00;;;;;;;33.13;4.20;;;;;;;8.80;82.38;96438.75;5108379;27;20056;-77
2022/10/10 00:15:28;;;;;;;36.17;4.20;;;;;;;8.74;82.84;96438.03;5108152;27;20409;-76
2022/10/10 00:17:55;;;;;;;15.68;3.30;;;;;;;8.74;82.94;96434.53;5108834;27;20051;-77
2022/10/10 00:20:22;;;;;;;33.22;5.57;;;;;;;8.71;82.55;96435.13;5107476;27;20131;-77
2022/10/10 00:22:48;;;;;;;25.73;3.97;;;;;;;8.70;83.14;96438.94;5105179;28;20052;-76
2022/10/10 00:25:15;;;;;;;35.70;7.57;;;;;;;8.69;83.20;96431.91;5108243;28;20516;-75
2022/10/10 00:27:42;;;;;;;37.55;7.55;;;;;;;8.66;83.20;96435.22;5108420;28;20044;-76
2022/10/10 00:30:09;;;;;;;49.00;14.38;;;;;;;8.61;83.54;96428.81;5107865;27;20050;-76
2022/10/10 00:32:37;;;;;;;25.83;4.03;;;;;;;8.59;84.05;96427.50;5108271;27;20040;-76
2022/10/10 00:35:04;;;;;;;22.48;3.55;;;;;;;8.56;83.83;96434.34;5094519;28;20048;-76
2022/10/10 00:37:31;;;;;;;37.42;4.93;;;;;;;8.54;83.35;96433.03;5094764;28;20105;-76
2022/10/10 00:39:58;;;;;;;24.48;3.65;;;;;;;8.54;83.88;96428.41;5094937;28;20047;-76
2022/10/10 00:42:24;;;;;;;28.90;4.43;;;;;;;8.52;84.02;96433.34;5094280;28;20214;-76
2022/10/10 00:45:22;;;;;;;23.45;3.97;;;;;;;8.51;83.97;96430.91;5094515;28;20475;-75
2022/10/10 00:47:52;;;;;;;29.67;4.45;;;;;;;8.48;84.13;96432.34;5094179;28;20040;-76
2022/10/10 00:50:21;;;;;;;23.25;4.70;;;;;;;8.26;83.82;96424.88;5093060;28;20048;-77
2022/10/10 00:52:49;;;;;;;21.40;4.20;;;;;;;8.26;84.00;96429.50;5095438;28;20044;-76
2022/10/10 00:55:16;;;;;;;31.80;4.38;;;;;;;8.29;84.20;96429.69;5093572;28;20070;-77
2022/10/10 00:57:43;;;;;;;23.90;4.68;;;;;;;8.23;83.74;96435.53;5092290;28;20051;-76
2022/10/10 01:00:11;;;;;;;20.80;3.85;;;;;;;8.19;83.96;96443.44;5093022;28;20044;-76
2022/10/10 01:02:37;;;;;;;29.73;4.20;;;;;;;8.18;84.11;96439.13;5093530;28;20043;-76
2022/10/10 01:05:06;;;;;;;23.02;4.50;;;;;;;8.18;84.42;96433.69;5093424;28;20046;-76
2022/10/10 01:07:33;;;;;;;27.48;4.45;;;;;;;8.25;85.23;96436.03;5093647;28;20044;-77
2022/10/10 01:10:05;;;;;;;19.80;3.92;;;;;;;8.23;85.18;96430.09;5093599;28;20044;-77
2022/10/10 01:12:45;;;;;;;17.63;3.63;;;;;;;8.22;85.32;96420.34;5093555;28;20048;-76
2022/10/10 01:15:19;;;;;;;30.88;4.78;;;;;;;8.22;85.40;96423.06;5092258;28;20052;-76
2022/10/10 01:17:52;;;;;;;26.65;4.60;;;;;;;8.21;85.66;96416.03;5093524;28;20063;-76
2022/10/10 01:20:30;;;;;;;;;;;;;;;8.19;85.61;96412.81;5093308;28;20044;-76
2022/10/10 01:23:16;;;;;;;27.85;4.22;;;;;;;8.15;85.19;96407.19;5095061;28;20383;-76
2022/10/10 01:25:57;;;;;;;30.00;4.43;;;;;;;8.11;85.49;96409.69;5093154;28;20040;-77
2022/10/10 01:28:36;;;;;;;23.02;3.92;;;;;;;8.00;85.13;96405.56;5093099;28;20044;-76
2022/10/10 01:31:08;;;;;;;32.95;4.68;;;;;;;8.04;84.98;96413.91;5089684;28;20040;-76
2022/10/10 01:33:43;;;;;;;44.92;5.10;;;;;;;8.03;85.19;96399.53;5092926;28;20126;-75
2022/10/10 01:36:18;;;;;;;34.83;5.88;;;;;;;8.00;85.19;96416.41;5092874;28;20562;-75
2022/10/10 01:38:51;;;;;;;44.47;7.75;;;;;;;7.97;85.24;96408.06;5091876;28;20047;-75
2022/10/10 01:41:21;;;;;;;;;;;;;;;7.95;85.11;96408.38;5092962;28;20046;-76
2022/10/10 01:43:54;;;;;;;39.88;9.35;;;;;;;7.89;85.07;96409.59;5093087;28;19920;-75
2022/10/10 01:46:20;;;;;;;34.10;8.70;;;;;;;7.90;84.98;96415.81;5091654;28;20043;-75
2022/10/10 01:48:51;;;;;;;54.90;10.88;;;;;;;7.72;85.52;96412.03;5092265;28;20046;-76
2022/10/10 01:51:34;;;;;;;36.30;8.95;;;;;;;7.60;85.98;96407.09;5094746;28;20513;-76
2022/10/10 01:54:13;;;;;;;23.80;7.90;;;;;;;7.68;85.74;96413.75;5093604;28;20044;-76
2022/10/10 01:56:45;;;;;;;28.08;6.43;;;;;;;7.69;85.90;96415.38;5092732;28;20047;-76
2022/10/10 01:59:28;;;;;;;39.47;5.63;;;;;;;7.71;85.56;96410.44;5091799;28;20126;-75
2022/10/10 02:02:02;;;;;;;27.10;5.07;;;;;;;7.58;86.44;96410.13;5092664;28;20044;-75
2022/10/10 02:04:33;;;;;;;28.17;4.97;;;;;;;7.58;86.52;96412.03;5092298;28;20402;-75
2022/10/10 02:07:03;;;;;;;27.33;5.55;;;;;;;7.64;86.67;96412.75;5092165;28;20048;-76
2022/10/10 02:09:35;;;;;;;19.38;5.00;;;;;;;7.73;87.09;96413.66;5092144;28;20040;-78
2022/10/10 02:12:03;;;;;;;27.23;5.10;;;;;;;7.70;86.90;96416.97;5092069;28;20044;-74
2022/10/10 02:14:37;;;;;;;19.30;4.68;;;;;;;7.60;87.18;96412.53;5092291;28;20046;-75
2022/10/10 02:17:07;;;;;;;22.15;4.57;;;;;;;7.43;88.00;96402.25;5092255;28;20050;-76
2022/10/10 02:19:35;;;;;;;28.98;6.07;;;;;;;7.43;89.04;96406.84;5092125;28;20046;-75
2022/10/10 02:22:02;;;;;;;21.38;5.22;;;;;;;7.49;89.29;96406.47;5094008;28;20052;-76
2022/10/10 02:24:29;;;;;;;35.72;6.55;;;;;;;7.64;89.36;96401.91;5092160;28;20044;-78
2022/10/10 02:27:03;;;;;;;23.23;5.15;;;;;;;7.77;88.98;96401.09;5091989;28;20044;-77
2022/10/10 02:29:35;;;;;;;30.33;8.80;;;;;;;7.79;89.32;96407.06;5092235;28;20044;-78
2022/10/10 02:32:06;;;;;;;27.45;9.50;;;;;;;7.79;89.86;96407.06;5092915;28;20055;-76
2022/10/10 02:34:36;;;;;;;33.60;10.05;;;;;;;7.75;90.59;96404.13;5091991;28;20044;-77
2022/10/10 02:37:06;;;;;;;24.90;8.70;;;;;;;7.89;90.38;96404.16;5091800;28;20067;-76
2022/10/10 02:39:36;;;;;;;27.88;7.68;;;;;;;7.96;90.37;96409.97;5075631;28;20046;-74
2022/10/10 02:42:05;;;;;;;23.25;7.22;;;;;;;7.86;91.01;96410.16;5091453;28;20059;-76
2022/10/10 02:44:33;;;;;;;23.02;6.97;;;;;;;7.70;92.96;96403.41;5091400;28;20055;-76
2022/10/10 02:47:00;;;;;;;22.73;7.35;;;;;;;7.63;93.74;96411.13;5091729;28;20483;-75
2022/10/10 02:49:29;;;;;;;38.55;8.68;;;;;;;7.58;94.46;96409.31;5091869;28;20054;-76
2022/10/10 02:51:56;;;;;;;25.25;7.63;;;;;;;7.68;94.96;96416.47;5093450;28;20051;-75
2022/10/10 02:54:22;;;;;;;29.15;8.48;;;;;;;7.65;95.55;96415.16;5091252;28;20040;-76
2022/10/10 02:56:49;;;;;;;21.25;7.93;;;;;;;7.57;96.47;96416.66;5090455;28;20620;-75
2022/10/10 02:59:16;;;;;;;34.70;9.45;;;;;;;7.55;96.70;96415.31;5090919;28;20048;-75
2022/10/10 03:01:44;;;;;;;29.05;9.23;;;;;;;7.51;98.08;96415.09;5089621;28;20051;-76
2022/10/10 03:04:11;;;;;;;29.55;9.27;;;;;;;7.61;98.45;96408.69;5091227;28;20067;-76
2022/10/10 03:06:37;;;;;;;26.15;9.18;;;;;;;7.68;98.22;96408.34;5091839;28;20054;-76
2022/10/10 03:09:05;;;;;;;39.15;11.15;;;;;;;7.65;98.75;96403.50;5090688;28;20113;-75
2022/10/10 03:11:32;;;;;;;25.80;8.10;;;;;;;7.79;98.35;96402.44;5091198;28;20052;-77
2022/10/10 03:13:59;;;;;;;28.63;8.98;;;;;;;7.94;97.51;96403.25;5091276;28;20052;-76
2022/10/10 03:16:25;;;;;;;21.63;8.30;;;;;;;8.01;97.66;96399.03;5091025;28;20040;-75
2022/10/10 03:18:53;;;;;;;35.70;9.93;;;;;;;8.09;97.96;96402.94;5091220;28;20051;-76
2022/10/10 03:21:21;;;;;;;28.88;8.27;;;;;;;8.16;98.03;96408.00;5078471;28;20147;-76
2022/10/10 03:23:47;;;;;;;29.60;9.63;;;;;;;8.06;97.93;96409.78;5091409;28;20048;-75
2022/10/10 03:26:14;;;;;;;25.38;9.30;;;;;;;7.96;98.17;96420.81;5070416;28;20408;-76
2022/10/10 03:28:43;;;;;;;26.48;9.10;;;;;;;7.97;98.47;96417.00;5071024;28;20049;-76
2022/10/10 03:31:10;;;;;;;27.85;9.32;;;;;;;7.83;99.26;96416.19;5090084;28;20048;-77
2022/10/10 03:33:36;;;;;;;31.42;9.10;;;;;;;7.85;99.98;96414.00;5091737;28;20044;-76
2022/10/10 03:36:05;;;;;;;33.70;9.85;;;;;;;7.97;99.58;96421.63;5090956;28;20050;-75
2022/10/10 03:38:31;;;;;;;32.03;10.10;;;;;;;8.00;100.00;96421.84;5091004;28;20058;-76
2022/10/10 03:40:58;;;;;;;32.35;9.88;;;;;;;8.04;100.00;96406.59;5091272;28;20079;-75
2022/10/10 03:43:24;;;;;;;24.90;9.25;;;;;;;8.14;100.00;96407.47;5091235;28;20089;-76
2022/10/10 03:45:51;;;;;;;28.80;9.70;;;;;;;8.26;100.00;96413.22;5091254;28;20044;-75
2022/10/10 03:48:17;;;;;;;27.45;10.23;;;;;;;8.34;99.71;96407.09;5090568;28;20043;-76
2022/10/10 03:50:44;;;;;;;43.22;11.02;;;;;;;8.42;99.20;96405.63;5090771;28;20048;-77
2022/10/10 03:53:12;;;;;;;26.77;9.90;;;;;;;8.46;99.32;96407.44;5090921;28;20052;-76
2022/10/10 03:55:39;;;;;;;27.10;9.40;;;;;;;8.41;99.29;96406.72;5090521;28;20052;-77
2022/10/10 03:58:06;;;;;;;29.40;10.18;;;;;;;8.44;99.06;96408.81;5091112;28;20135;-77
2022/10/10 04:00:32;;;;;;;27.75;10.93;;;;;;;8.43;99.04;96405.31;5090684;28;20126;-77
2022/10/10 04:03:04;;;;;;;56.58;14.00;;;;;;;8.44;100.00;96404.19;5091356;28;20077;-75
2022/10/10 04:05:32;;;;;;;33.92;11.98;;;;;;;8.56;100.00;96403.66;5091556;28;20048;-77
2022/10/10 04:07:58;;;;;;;30.55;12.25;;;;;;;8.67;100.00;96405.09;5091895;28;20055;-78
2022/10/10 04:10:26;;;;;;;30.17;11.55;;;;;;;8.75;100.00;96404.34;5095602;28;20048;-78
2022/10/10 04:12:53;;;;;;;33.42;11.68;;;;;;;8.88;100.00;96406.25;5097908;28;20517;-75
2022/10/10 04:15:19;;;;;;;31.02;12.07;;;;;;;8.90;100.00;96408.66;5096671;28;20066;-76
2022/10/10 04:17:46;;;;;;;32.53;11.82;;;;;;;8.80;100.00;96400.72;5097865;28;20044;-76
2022/10/10 04:20:12;;;;;;;36.83;12.60;;;;;;;8.84;100.00;96402.53;5096061;28;20562;-75
2022/10/10 04:22:39;;;;;;;30.75;10.70;;;;;;;8.91;100.00;96402.09;5098977;28;20048;-77
2022/10/10 04:25:06;;;;;;;33.67;11.52;;;;;;;8.86;100.00;96404.94;5095750;28;20463;-76
2022/10/10 04:27:34;;;;;;;44.20;14.18;;;;;;;8.95;100.00;96400.38;5096801;28;20056;-76
2022/10/10 04:30:01;;;;;;;31.45;11.85;;;;;;;9.02;100.00;96408.09;5096249;28;20051;-76
2022/10/10 04:32:28;;;;;;;30.38;11.20;;;;;;;9.07;100.00;96408.78;5096209;28;20548;-76
2022/10/10 04:34:54;;;;;;;38.50;13.20;;;;;;;9.09;100.00;96405.78;5096060;28;20123;-76
2022/10/10 04:37:21;;;;;;;31.85;11.93;;;;;;;9.13;100.00;96404.88;5095684;28;20051;-76
2022/10/10 04:39:47;;;;;;;49.10;14.68;;;;;;;9.19;100.00;96402.84;5095858;28;20062;-75
2022/10/10 04:42:14;;;;;;;53.17;14.82;;;;;;;9.07;100.00;96402.56;5095298;28;20040;-75
2022/10/10 04:44:45;;;;;;;38.53;12.77;;;;;;;9.06;100.00;96396.31;5094993;28;20503;-76
2022/10/10 04:47:14;;;;;;;34.42;13.43;;;;;;;9.14;100.00;96406.47;5097090;28;20453;-76
2022/10/10 04:49:41;;;;;;;45.88;15.00;;;;;;;9.15;100.00;96404.56;5097493;28;20059;-77
2022/10/10 04:52:07;;;;;;;45.55;13.93;;;;;;;9.21;100.00;96399.81;5097664;28;20059;-76
2022/10/10 04:54:34;;;;;;;38.38;13.95;;;;;;;9.28;100.00;96405.59;5096482;28;20040;-76
2022/10/10 04:57:03;;;;;;;36.15;13.20;;;;;;;9.24;100.00;96405.44;5096256;28;20155;-76
2022/10/10 04:59:34;;;;;;;34.20;12.82;;;;;;;9.31;100.00;96405.00;5096221;28;20078;-78
2022/10/10 05:02:01;;;;;;;26.67;10.85;;;;;;;9.38;99.69;96397.22;5096808;28;20252;-78
2022/10/10 05:04:28;;;;;;;39.20;13.98;;;;;;;9.29;99.86;96399.06;5095515;28;20036;-76
2022/10/10 05:06:55;;;;;;;40.03;14.48;;;;;;;9.29;100.00;96396.34;5096114;28;20044;-75
2022/10/10 05:09:21;;;;;;;46.25;15.48;;;;;;;9.26;100.00;96396.97;5095125;28;21016;-75
2022/10/10 05:11:48;;;;;;;36.63;12.70;;;;;;;9.30;100.00;96395.25;5095159;28;20051;-77
2022/10/10 05:14:14;;;;;;;26.08;11.75;;;;;;;9.35;99.88;96397.84;5095697;28;20044;-76
2022/10/10 05:16:41;;;;;;;47.40;14.23;;;;;;;9.28;100.00;96405.59;5095928;28;20040;-76
2022/10/10 05:19:09;;;;;;;29.80;11.93;;;;;;;9.36;100.00;96407.59;5093160;28;20325;-76
2022/10/10 05:21:35;;;;;;;29.45;11.95;;;;;;;9.39;99.65;96413.19;5096488;28;20048;-76
2022/10/10 05:24:02;;;;;;;45.00;14.35;;;;;;;9.35;100.00;96412.22;5097750;28;20158;-76
2022/10/10 05:26:29;;;;;;;39.30;14.55;;;;;;;9.41;100.00;96415.63;5094861;28;20524;-75
2022/10/10 05:28:56;;;;;;;38.40;14.57;;;;;;;9.41;100.00;96421.88;5094716;28;20409;-76
2022/10/10 05:31:22;;;;;;;31.63;13.38;;;;;;;9.41;100.00;96426.50;5094205;28;20546;-74
2022/10/10 05:33:49;;;;;;;43.25;15.50;;;;;;;9.36;100.00;96424.69;5094254;28;20048;-77
2022/10/10 05:36:17;;;;;;;34.15;13.63;;;;;;;9.30;100.00;96425.13;5093717;28;20096;-76
2022/10/10 05:38:44;;;;;;;40.63;14.85;;;;;;;9.42;100.00;96428.09;5093541;28;20055;-76
2022/10/10 05:41:11;;;;;;;36.90;15.02;;;;;;;9.46;100.00;96434.53;5091667;28;20051;-78
2022/10/10 05:43:38;;;;;;;37.70;15.68;;;;;;;9.32;100.00;96433.78;5092815;28;20044;-75
2022/10/10 05:46:05;;;;;;;41.55;14.85;;;;;;;9.34;100.00;96437.81;5093568;28;20055;-76
2022/10/10 05:48:31;;;;;;;53.67;16.73;;;;;;;9.40;100.00;96441.22;5089731;28;20139;-76
2022/10/10 05:51:00;;;;;;;50.03;15.85;;;;;;;9.48;100.00;96442.38;5091474;28;20052;-79
2022/10/10 05:53:29;;;;;;;44.90;15.40;;;;;;;9.57;100.00;96448.69;5092014;28;20040;-79
2022/10/10 05:55:56;;;;;;;38.95;14.90;;;;;;;9.63;100.00;96439.28;5093959;28;20052;-81
2022/10/10 05:58:23;;;;;;;59.28;15.32;;;;;;;9.49;100.00;96439.34;5092119;28;20044;-80
2022/10/10 06:00:49;;;;;;;36.15;14.07;;;;;;;9.37;100.00;96433.66;5090888;28;20056;-79
2022/10/10 06:03:19;;;;;;;50.75;15.38;;;;;;;9.38;100.00;96443.41;5090470;28;20046;-80
2022/10/10 06:05:48;;;;;;;28.63;12.25;;;;;;;9.49;100.00;96442.06;5110962;28;20788;-79
2022/10/10 06:08:17;;;;;;;40.78;15.02;;;;;;;9.53;100.00;96448.47;5112743;28;20057;-80
2022/10/10 06:10:46;;;;;;;37.30;13.90;;;;;;;9.62;100.00;96437.69;5113490;28;20055;-82
2022/10/10 06:13:15;;;;;;;34.80;14.13;;;;;;;9.60;100.00;96440.69;5119136;28;20104;-79
2022/10/10 06:15:44;;;;;;;31.90;12.77;;;;;;;9.63;100.00;96442.00;5114955;28;20063;-79
2022/10/10 06:18:13;;;;;;;39.92;15.63;;;;;;;9.65;100.00;96443.28;5111749;28;20167;-77
2022/10/10 06:20:40;;;;;;;39.33;14.68;;;;;;;9.64;100.00;96447.13;5112075;28;20055;-78
2022/10/10 06:23:08;;;;;;;37.10;13.15;;;;;;;9.67;100.00;96443.00;5088835;28;20044;-79
2022/10/10 06:25:39;;;;;;;33.38;12.00;;;;;;;9.56;100.00;96455.22;5089275;28;20048;-78
2022/10/10 06:28:07;;;;;;;37.38;12.25;;;;;;;9.39;100.00;96455.88;5091020;28;20507;-76
2022/10/10 06:30:34;;;;;;;33.53;12.10;;;;;;;9.30;100.00;96452.31;5091745;28;20054;-77
2022/10/10 06:33:03;;;;;;;24.65;11.13;;;;;;;9.33;100.00;96457.13;5092311;28;20048;-78
2022/10/10 06:35:30;;;;;;;31.10;11.93;;;;;;;9.26;100.00;96456.75;5092512;28;20036;-80
2022/10/10 06:37:58;;;;;;;28.73;11.13;;;;;;;9.30;100.00;96458.56;5092285;28;20051;-79
2022/10/10 06:40:24;;;;;;;37.35;12.63;;;;;;;9.25;100.00;96460.59;5090863;28;20131;-77
2022/10/10 06:42:53;;;;;;;25.30;11.15;;;;;;;9.17;100.00;96464.00;5090547;28;20048;-77
2022/10/10 06:45:24;;;;;;;49.47;13.77;;;;;;;9.13;100.00;96461.91;5091123;28;20128;-80
2022/10/10 06:47:51;;;;;;;43.80;11.88;;;;;;;9.08;100.00;96467.47;5092076;28;20124;-78
2022/10/10 06:50:20;;;;;;;41.50;12.48;;;;;;;9.15;100.00;96467.84;5089637;28;20128;-78
2022/10/10 06:52:47;;;;;;;30.10;10.82;;;;;;;9.04;100.00;96466.47;5093507;28;20147;-75
2022/10/10 06:55:13;;;;;;;24.30;9.82;;;;;;;9.12;100.00;96473.06;5089143;28;20052;-74
2022/10/10 06:57:41;;;;;;;27.65;11.05;;;;;;;9.22;100.00;96461.19;5089050;28;20048;-80
2022/10/10 07:00:08;;;;;;;50.15;12.68;;;;;;;9.17;100.00;96464.00;5088225;28;20083;-76
2022/10/10 07:02:39;;;;;;;52.33;13.55;;;;;;;9.23;100.00;96462.78;5089079;28;20093;-76
2022/10/10 07:05:07;;;;;;;37.65;12.10;;;;;;;9.16;100.00;96474.06;5089782;28;20055;-76
2022/10/10 07:07:34;;;;;;;36.75;13.13;;;;;;;9.24;100.00;96475.25;5090263;28;20052;-77
2022/10/10 07:10:00;;;;;;;30.15;11.32;;;;;;;9.31;100.00;96487.31;5091717;28;20054;-77
2022/10/10 07:12:27;;;;;;;74.15;13.32;;;;;;;9.12;100.00;96482.03;5090528;28;20411;-76
2022/10/10 07:14:55;;;;;;;27.65;11.98;;;;;;;9.24;100.00;96483.41;5090855;28;20044;-78
2022/10/10 07:17:22;;;;;;;25.75;10.73;;;;;;;9.45;100.00;96487.28;5092226;28;20173;-79
2022/10/10 07:19:50;;;;;;;39.33;13.77;;;;;;;9.55;100.00;96491.66;5093408;28;20478;-80
2022/10/10 07:22:16;;;;;;;47.42;14.40;;;;;;;9.36;100.00;96489.94;5091714;28;20052;-76
2022/10/10 07:24:43;;;;;;;29.25;11.23;;;;;;;9.57;100.00;96498.41;5089666;28;20047;-76
2022/10/10 07:27:10;;;;;;;31.83;10.98;;;;;;;9.58;100.00;96491.88;5092894;28;20127;-77
2022/10/10 07:29:36;;;;;;;21.55;10.10;;;;;;;9.64;100.00;96487.91;5091767;28;20052;-76
2022/10/10 07:32:03;;;;;;;29.90;11.35;;;;;;;9.54;100.00;96493.59;5090398;28;20070;-76
2022/10/10 07:34:29;;;;;;;27.08;10.63;;;;;;;9.51;100.00;96491.50;5091310;28;20127;-78
2022/10/10 07:36:58;;;;;;;20.02;10.50;;;;;;;9.33;100.00;96495.16;5093851;28;20044;-78
2022/10/10 07:39:26;;;;;;;24.05;10.82;;;;;;;9.36;100.00;96500.81;5093585;28;20115;-77
2022/10/10 07:41:52;;;;;;;18.95;9.80;;;;;;;9.55;100.00;96503.38;5094106;28;20058;-79
2022/10/10 07:44:20;;;;;;;22.38;10.13;;;;;;;9.49;100.00;96509.22;5095710;28;20050;-77
2022/10/10 07:46:47;;;;;;;20.50;9.55;;;;;;;9.52;100.00;96503.97;5098881;28;20052;-79
2022/10/10 07:49:13;;;;;;;19.85;10.25;;;;;;;9.65;100.00;96503.09;5097463;28;20092;-78
2022/10/10 07:51:40;;;;;;;22.70;10.10;;;;;;;9.72;100.00;96507.34;5100245;28;20068;-78
2022/10/10 07:54:12;;;;;;;18.67;9.80;;;;;;;9.53;100.00;96507.50;5097973;28;20127;-77
2022/10/10 07:56:39;;;;;;;20.08;10.20;;;;;;;9.97;100.00;96503.16;5097389;28;20052;-78
2022/10/10 07:59:05;;;;;;;29.30;11.93;;;;;;;10.32;100.00;96501.50;5094737;28;20048;-76
2022/10/10 08:01:32;;;;;;;24.17;11.00;;;;;;;10.61;100.00;96496.34;5092760;28;20074;-79
2022/10/10 08:04:01;;;;;;;28.88;11.25;;;;;;;10.88;99.01;96500.75;5093221;28;20082;-79
2022/10/10 08:06:27;;;;;;;21.05;9.95;;;;;;;11.28;98.84;96502.63;5095734;28;20040;-79
2022/10/10 08:08:54;;;;;;;14.02;8.45;;;;;;;11.68;96.97;96503.28;5110942;28;20051;-76
2022/10/10 08:11:22;;;;;;;15.95;8.10;;;;;;;11.82;92.75;96501.22;5115957;28;20490;-80
2022/10/10 08:13:50;;;;;;;12.95;7.38;;;;;;;11.96;89.93;96506.53;5118886;28;20047;-76
2022/10/10 08:16:16;;;;;;;13.48;8.30;;;;;;;12.20;90.06;96509.50;5119611;28;20506;-79
2022/10/10 08:18:43;;;;;;;13.20;6.95;;;;;;;12.22;87.46;96507.28;5121201;27;20483;-77
2022/10/10 08:21:14;;;;;;;12.18;7.65;;;;;;;12.24;87.02;96513.19;5112723;27;20048;-78
2022/10/10 08:23:41;;;;;;;12.90;6.55;;;;;;;12.36;87.91;96514.47;5099295;28;20052;-78
2022/10/10 08:26:09;;;;;;;16.92;7.88;;;;;;;12.39;86.69;96513.81;5102113;28;20051;-78
2022/10/10 08:28:39;;;;;;;14.65;7.00;;;;;;;12.32;86.67;96513.50;5103327;28;20135;-79
2022/10/10 08:31:06;;;;;;;12.32;6.70;;;;;;;12.46;87.98;96509.44;5102914;28;20131;-79
2022/10/10 08:33:36;;;;;;;10.55;5.65;;;;;;;12.62;87.52;96512.44;5103180;28;20046;-79
2022/10/10 08:36:07;;;;;;;10.90;5.50;;;;;;;12.82;86.83;96504.66;5101426;28;20051;-79
2022/10/10 08:38:33;;;;;;;11.90;6.55;;;;;;;12.74;85.96;96504.38;5102523;28;20101;-80
2022/10/10 08:41:01;;;;;;;12.00;6.57;;;;;;;12.79;86.14;96506.94;5099429;28;20048;-78
2022/10/10 08:43:33;;;;;;;11.77;5.90;;;;;;;13.01;85.90;96507.78;5098938;28;20048;-78
2022/10/10 08:46:11;;;;;;;9.85;5.35;;;;;;;13.08;85.15;96513.53;5101102;28;20529;-77
2022/10/10 08:48:41;;;;;;;11.40;5.80;;;;;;;13.16;85.11;96499.03;5101474;28;20089;-79
2022/10/10 08:51:14;;;;;;;8.85;5.15;;;;;;;13.24;84.55;96498.19;5100918;28;20043;-79
2022/10/10 08:53:44;;;;;;;12.23;4.85;;;;;;;13.34;84.73;96493.47;5102493;28;20052;-77
2022/10/10 08:56:20;;;;;;;10.57;5.95;;;;;;;13.54;85.10;96498.16;5100511;28;20044;-79
2022/10/10 08:58:50;;;;;;;9.40;5.10;;;;;;;13.57;84.20;96500.19;5101531;28;20105;-79
2022/10/10 09:01:23;;;;;;;9.70;4.63;;;;;;;13.69;83.60;96500.28;5097939;28;20044;-79
2022/10/10 09:03:54;;;;;;;10.20;5.20;;;;;;;13.87;83.16;96500.13;5100374;28;20046;-78
2022/10/10 09:06:30;;;;;;;9.77;4.85;;;;;;;14.00;82.91;96497.13;5097411;28;20047;-79
2022/10/10 09:09:07;;;;;;;10.45;5.22;;;;;;;14.16;81.48;96500.03;5101113;28;20050;-79
2022/10/10 09:11:54;;;;;;;14.05;4.95;;;;;;;14.41;80.89;96500.09;5100545;28;20047;-79
2022/10/10 09:14:30;;;;;;;15.02;5.55;;;;;;;14.34;79.52;96506.91;5101492;28;20055;-78
2022/10/10 09:17:04;;;;;;;12.40;4.93;;;;;;;14.44;79.08;96513.13;5099028;28;20044;-78
2022/10/10 09:19:43;;;;;;;11.82;4.88;;;;;;;14.55;80.30;96508.81;5092642;28;20131;-78
2022/10/10 09:22:15;;;;;;;16.67;5.50;;;;;;;14.60;79.42;96509.41;5087816;28;20056;-76
2022/10/10 09:24:47;;;;;;;12.75;5.18;;;;;;;14.48;78.96;96505.84;5076498;28;20515;-78
2022/10/10 09:27:20;;;;;;;15.38;5.32;;;;;;;14.38;80.69;96509.00;5073291;28;20052;-79
2022/10/10 09:29:51;;;;;;;14.05;5.07;;;;;;;14.47;80.32;96516.03;5072722;28;20045;-79
2022/10/10 09:32:23;;;;;;;15.77;4.85;;;;;;;14.53;80.39;96513.84;5072853;28;20575;-77
2022/10/10 09:34:54;;;;;;;13.38;4.70;;;;;;;14.61;78.85;96510.22;5060033;28;20053;-75
2022/10/10 09:37:24;;;;;;;9.77;4.22;;;;;;;14.80;78.65;96502.25;5054402;28;20072;-79
2022/10/10 09:39:57;;;;;;;16.33;4.57;;;;;;;14.87;77.56;96505.22;5053953;28;20761;-78
2022/10/10 09:42:35;;;;;;;11.88;4.07;;;;;;;15.09;77.42;96505.94;5055169;28;20051;-76
2022/10/10 09:45:02;;;;;;;16.10;5.28;;;;;;;15.11;76.65;96514.59;5055857;28;20061;-78
2022/10/10 09:47:30;;;;;;;12.02;4.43;;;;;;;15.22;76.11;96513.00;5054667;28;20041;-78
2022/10/10 09:49:59;;;;;;;10.88;4.25;;;;;;;15.36;76.05;96504.41;5058454;28;20055;-75
2022/10/10 09:52:28;;;;;;;14.45;4.00;;;;;;;15.45;74.29;96504.28;5069480;28;20044;-77
2022/10/10 09:54:59;;;;;;;14.68;4.40;;;;;;;15.52;74.39;96507.25;5077293;28;20052;-78
2022/10/10 09:57:36;;;;;;;10.50;4.05;;;;;;;15.69;75.49;96507.00;5077740;28;20109;-78
2022/10/10 10:00:26;;;;;;;14.38;4.05;;;;;;;15.77;73.87;96513.53;5077447;28;20048;-77
2022/10/10 10:03:06;;;;;;;12.73;4.07;;;;;;;15.98;73.30;96507.84;5078107;28;20167;-75
2022/10/10 10:05:33;;;;;;;12.38;3.90;;;;;;;16.15;71.14;96508.34;5076164;28;20048;-76
2022/10/10 10:07:59;;;;;;;13.75;4.10;;;;;;;16.34;71.44;96513.19;5076530;28;20499;-76
2022/10/10 10:10:29;;;;;;;15.20;3.70;;;;;;;16.50;72.05;96517.91;5074301;28;20044;-77
2022/10/10 10:12:57;;;;;;;9.70;3.45;;;;;;;16.65;72.76;96515.19;5074182;28;20056;-78
2022/10/10 10:15:25;;;;;;;15.15;5.32;;;;;;;16.64;70.65;96515.50;5075511;28;20439;-78
2022/10/10 10:18:15;;;;;;;18.38;5.15;;;;;;;16.56;70.89;96511.00;5075243;28;20063;-78
2022/10/10 10:20:43;;;;;;;22.52;5.32;;;;;;;16.56;70.83;96519.25;5073860;28;20044;-78
2022/10/10 10:23:27;;;;;;;16.58;4.35;;;;;;;16.71;70.60;96515.75;5073629;28;20774;-75
2022/10/10 10:25:59;;;;;;;21.33;4.80;;;;;;;16.84;70.96;96511.75;5073314;28;20044;-76
2022/10/10 10:28:27;;;;;;;17.13;4.07;;;;;;;16.95;70.68;96506.50;5073047;28;20048;-79
2022/10/10 10:30:55;;;;;;;14.05;3.85;;;;;;;17.14;70.54;96514.06;5072861;28;20502;-76
2022/10/10 10:33:36;;;;;;;16.30;4.05;;;;;;;17.14;69.23;96503.06;5071204;28;20052;-76
2022/10/10 10:36:11;;;;;;;13.45;3.67;;;;;;;17.30;69.44;96503.81;5070633;28;20087;-76
2022/10/10 10:38:43;;;;;;;15.70;4.22;;;;;;;17.31;68.71;96507.38;5072553;28;20166;-79
2022/10/10 10:41:20;;;;;;;15.20;4.20;;;;;;;17.22;69.10;96502.06;5072524;28;20044;-76
2022/10/10 10:43:57;;;;;;;19.80;4.45;;;;;;;17.29;68.94;96502.22;5075663;28;20407;-75
2022/10/10 10:46:32;;;;;;;18.63;3.92;;;;;;;17.24;69.60;96502.50;5074771;28;20051;-76
2022/10/10 10:49:10;;;;;;;20.17;4.75;;;;;;;17.27;70.31;96500.97;5073979;28;20052;-76
2022/10/10 10:52:10;;;;;;;15.15;4.22;;;;;;;17.43;68.84;96505.28;5076395;28;20667;-78
2022/10/10 10:54:54;;;;;;;12.48;3.72;;;;;;;17.50;68.77;96498.38;5076708;28;20135;-75
2022/10/10 10:57:33;;;;;;;16.35;3.88;;;;;;;17.38;69.28;96500.09;5076011;28;20040;-75
2022/10/10 11:00:05;;;;;;;16.98;3.95;;;;;;;17.55;70.17;96495.34;5075377;28;20704;-78
2022/10/10 11:02:42;;;;;;;14.30;3.72;;;;;;;17.68;70.24;96499.56;5076623;28;20045;-76
2022/10/10 11:05:31;;;;;;;17.42;4.55;;;;;;;17.70;68.41;96494.50;5076407;28;20071;-76
2022/10/10 11:08:08;;;;;;;14.38;3.88;;;;;;;17.56;67.72;96494.97;5079051;28;20135;-76
2022/10/10 11:10:40;;;;;;;8.60;3.20;;;;;;;17.67;68.16;96487.75;5080492;28;20044;-77
2022/10/10 11:13:16;;;;;;;17.33;4.60;;;;;;;17.56;67.05;96485.91;5080264;28;20402;-76
2022/10/10 11:15:48;;;;;;;11.23;3.72;;;;;;;17.83;67.71;96484.97;5073989;28;20052;-77
2022/10/10 11:18:19;;;;;;;15.57;3.63;;;;;;;18.11;69.93;96487.50;5078134;28;20051;-79
2022/10/10 11:20:52;;;;;;;20.88;4.93;;;;;;;18.32;66.93;96484.34;5077948;28;20048;-77
2022/10/10 11:23:24;;;;;;;12.30;3.80;;;;;;;18.37;66.19;96481.28;5055616;28;20055;-79
2022/10/10 11:25:55;;;;;;;12.77;3.22;;;;;;;18.54;65.86;96479.25;5058481;28;20037;-81
2022/10/10 11:28:26;;;;;;;14.43;3.42;;;;;;;18.47;64.90;96477.16;5059432;28;20049;-80
2022/10/10 11:30:59;;;;;;;9.93;2.97;;;;;;;18.67;66.24;96478.69;5061108;28;20107;-80
2022/10/10 11:33:30;;;;;;;10.25;3.08;;;;;;;18.84;64.99;96477.44;5056067;28;20125;-80
2022/10/10 11:36:03;;;;;;;11.18;3.15;;;;;;;18.65;63.97;96475.53;5060102;28;20045;-79
2022/10/10 11:38:35;;;;;;;11.13;3.58;;;;;;;18.69;63.75;96475.63;5056051;28;20043;-76